WXM80 ListenWXM80 Stop

You find our weather info also at:

UK Metoffice

WeatherCloud

Weather Underground

Northeastern Weather Network

AWEKAS

Citizen Weather Observer Program (CWOP)

HAMweather, WeatherForYou, PWS Weather


Weather Underground History page Text

Daily Summary for February 10, 2018 Units:  Metric    English   Both
« Previous Day
Next Day »
Daily Weekly Monthly Yearly Custom
  High: Low: Average:
Temperature: -17.8 °C 2.1 °C 5 °C
Dew Point: -17.8 °C -0.2 °C 3.4 °C
Humidity: Humidity % 76 % 89 %
Wind Speed: 0 km/h 0 km/h 1 km/h
Wind Gust: 0 km/h - -
Wind:- - South
Pressure: 0 hPa 1007.7 hPa -
Precipitation: 3.3 mm    
Historical Graphs
 
 
Tabular Data for February 10, 2018
Time Temperature Dew Point Pressure Wind Wind Speed Wind Gust Humidity Rainfall Rate (Hourly)
-17.8 °C -17.8 °C 0 hPa Calm     Humidity % 0 mm
00:01 2.2 °C -0.1 °C 1021.2 hPa Calm   1.9 km/h 85 % 0 mm
00:06 2.1 °C -0.2 °C 1021.2 hPa Calm     85 % 0 mm
00:11 2.2 °C -0.1 °C 1020.9 hPa SW 0.3 km/h 1.9 km/h 85 % 0 mm
00:16 2.2 °C 0.1 °C 1020.9 hPa Calm     86 % 0 mm
00:21 2.2 °C 0.1 °C 1020.5 hPa SSE 2.6 km/h 7.4 km/h 86 % 0 mm
00:26 2.2 °C 0.3 °C 1020.5 hPa Calm   1.9 km/h 87 % 0 mm
00:31 2.3 °C 0.4 °C 1020.5 hPa SSE 0.2 km/h 1.9 km/h 87 % 0 mm
00:36 2.3 °C 0.4 °C 1020.5 hPa Calm     87 % 0 mm
00:41 2.4 °C 0.4 °C 1020.5 hPa SSE 0.2 km/h 3.7 km/h 87 % 0 mm
00:46 2.4 °C 0.4 °C 1020.5 hPa SSE 1 km/h 5.6 km/h 87 % 0 mm
00:51 2.4 °C 0.5 °C 1020.2 hPa South 1.1 km/h 5.6 km/h 87 % 0 mm
00:56 2.5 °C 0.6 °C 1020.2 hPa South 0.2 km/h 3.7 km/h 87 % 0 mm
01:01 2.6 °C 0.6 °C 1020.2 hPa Calm   5.6 km/h 87 % 0 mm
01:06 2.6 °C 0.6 °C 1020.2 hPa SSE 1.6 km/h 6.4 km/h 87 % 0 mm
01:11 2.6 °C 0.7 °C 1020.2 hPa SSE 1 km/h 3.7 km/h 87 % 0 mm
01:16 2.6 °C 0.7 °C 1019.9 hPa South 0.3 km/h 3.2 km/h 87 % 0 mm
01:21 2.7 °C 0.7 °C 1019.9 hPa South 0.8 km/h 5.6 km/h 87 % 0 mm
01:27 2.7 °C 0.8 °C 1019.9 hPa Calm   1.9 km/h 87 % 0 mm
01:32 2.8 °C 0.9 °C 1019.9 hPa South 0.5 km/h 4.8 km/h 87 % 0 mm
01:37 2.9 °C 1 °C 1019.9 hPa South 0.2 km/h 3.2 km/h 87 % 0 mm
01:42 3 °C 1.1 °C 1019.9 hPa South 0.2 km/h 3.7 km/h 87 % 0 mm
01:47 3.1 °C 1.1 °C 1019.9 hPa South 3.9 km/h 6.4 km/h 87 % 0 mm
01:52 3.2 °C 1.3 °C 1019.5 hPa SSE 0.5 km/h 3.2 km/h 87 % 0 mm
01:57 3.3 °C 1.4 °C 1019.5 hPa South 0.6 km/h 3.7 km/h 87 % 0 mm
02:02 3.3 °C 1.2 °C 1019.5 hPa SSE 3.1 km/h 5.6 km/h 86 % 0 mm
02:07 3.4 °C 1.3 °C 1019.2 hPa SSW 4.8 km/h 11.1 km/h 86 % 0 mm
02:12 3.5 °C 1.4 °C 1019.2 hPa Calm   3.7 km/h 86 % 0 mm
02:17 3.6 °C 1.5 °C 1019.2 hPa SSW 2.3 km/h 5.6 km/h 86 % 0 mm
02:22 3.7 °C 1.6 °C 1019.2 hPa South 2.1 km/h 5.6 km/h 86 % 0 mm
02:27 3.8 °C 1.7 °C 1018.8 hPa South 2.4 km/h 5.6 km/h 86 % 0 mm
02:32 3.8 °C 1.7 °C 1018.8 hPa SSW 3.7 km/h 5.6 km/h 86 % 0 mm
02:37 3.9 °C 1.8 °C 1018.8 hPa South 4 km/h 6.4 km/h 86 % 0 mm
02:42 3.9 °C 1.8 °C 1018.8 hPa South 1 km/h 3.7 km/h 86 % 0 mm
02:48 4.1 °C 1.9 °C 1018.5 hPa SSE 2.1 km/h 7.4 km/h 86 % 0 mm
02:53 4.1 °C 2 °C 1018.5 hPa South 0.5 km/h 5.6 km/h 86 % 0 mm
02:58 4.2 °C 1.9 °C 1018.5 hPa South 5 km/h 8 km/h 85 % 0 mm
03:03 4.2 °C 1.9 °C 1018.5 hPa South 5.5 km/h 9.3 km/h 85 % 0 mm
03:08 4.2 °C 1.9 °C 1018.5 hPa SSW 3.2 km/h 5.6 km/h 85 % 0 mm
03:13 4.2 °C 1.9 °C 1018.2 hPa South 5 km/h 7.4 km/h 85 % 0 mm
03:18 4.2 °C 1.9 °C 1018.5 hPa Calm     85 % 0 mm
03:23 4.2 °C 1.9 °C 1018.5 hPa SW 4.7 km/h 5.6 km/h 85 % 0 mm
03:28 4.2 °C 2.1 °C 1018.5 hPa WSW 0.6 km/h 3.2 km/h 86 % 0 mm
03:30 4.3 °C 2.2 °C 1018.5 hPa WSW 1.3 km/h 5.6 km/h 86 % 0 mm
03:35 4.3 °C 2.2 °C 1018.5 hPa Calm     86 % 0 mm
03:40 4.3 °C 2.2 °C 1018.5 hPa WSW 0.8 km/h 3.7 km/h 86 % 0 mm
03:45 4.3 °C 2.2 °C 1018.2 hPa SSW 1.9 km/h 3.7 km/h 86 % 0 mm
03:50 4.3 °C 2.2 °C 1018.2 hPa SSW 0.6 km/h 1.9 km/h 86 % 0 mm
03:55 4.3 °C 2.2 °C 1018.2 hPa SSW 0.5 km/h 1.9 km/h 86 % 0 mm
04:00 4.3 °C 2.2 °C 1018.2 hPa Calm     86 % 0 mm
04:05 4.3 °C 2.2 °C 1018.2 hPa Calm     86 % 0 mm
04:10 4.3 °C 2.2 °C 1018.2 hPa SSW 0.3 km/h 1.6 km/h 86 % 0 mm
04:15 4.3 °C 2.2 °C 1018.2 hPa Calm     86 % 0 mm
04:21 4.3 °C 2.2 °C 1018.2 hPa SSW 0.5 km/h   86 % 0 mm
04:26 4.3 °C 2.2 °C 1018.2 hPa Calm   1.6 km/h 86 % 0 mm
04:31 4.3 °C 2.2 °C 1018.2 hPa Calm   3.2 km/h 86 % 0 mm
04:36 4.3 °C 2.2 °C 1018.2 hPa Calm     86 % 0 mm
04:41 4.3 °C 2.2 °C 1018.2 hPa WSW 2.6 km/h 5.6 km/h 86 % 0 mm
04:46 4.2 °C 2.1 °C 1018.2 hPa Calm     86 % 0 mm
04:51 4.2 °C 2.1 °C 1018.2 hPa Calm     86 % 0 mm
04:56 4.2 °C 2.1 °C 1018.2 hPa Calm     86 % 0 mm
05:01 4.2 °C 2.1 °C 1018.2 hPa Calm     86 % 0 mm
05:06 4.1 °C 1.9 °C 1018.2 hPa Calm     86 % 0 mm
05:11 4.1 °C 1.9 °C 1018.2 hPa Calm     86 % 0 mm
05:16 4 °C 1.9 °C 1018.2 hPa Calm     86 % 0 mm
05:21 3.9 °C 1.8 °C 1018.2 hPa Calm     86 % 0 mm
05:26 3.8 °C 1.7 °C 1018.2 hPa Calm     86 % 0 mm
05:31 3.8 °C 1.7 °C 1018.2 hPa Calm     86 % 0 mm
05:36 3.7 °C 1.6 °C 1018.2 hPa Calm     86 % 0 mm
05:41 3.6 °C 1.5 °C 1018.2 hPa Calm     86 % 0 mm
05:46 3.5 °C 1.4 °C 1018.2 hPa Calm     86 % 0 mm
05:51 3.4 °C 1.3 °C 1018.2 hPa Calm   1.9 km/h 86 % 0 mm
05:56 3.3 °C 1.2 °C 1018.2 hPa West 0.6 km/h 3.2 km/h 86 % 0 mm
06:01 3.2 °C 1.1 °C 1018.2 hPa Calm     86 % 0 mm
06:06 3.1 °C 1 °C 1018.2 hPa Calm     86 % 0 mm
06:11 3 °C 1.1 °C 1017.8 hPa Calm     87 % 0 mm
06:16 2.9 °C 0.9 °C 1018.2 hPa Calm     87 % 0 mm
06:22 2.8 °C 0.9 °C 1017.8 hPa Calm     87 % 0 mm
06:27 2.7 °C 0.8 °C 1017.8 hPa Calm     87 % 0 mm
06:32 2.6 °C 0.7 °C 1017.8 hPa Calm     87 % 0 mm
06:37 2.6 °C 0.6 °C 1017.8 hPa Calm     87 % 0 mm
06:42 2.4 °C 0.5 °C 1017.8 hPa Calm     87 % 0 mm
06:47 2.4 °C 0.4 °C 1017.8 hPa Calm     87 % 0 mm
06:52 2.3 °C 0.6 °C 1017.8 hPa Calm     88 % 0 mm
06:57 2.3 °C 0.5 °C 1017.8 hPa Calm     88 % 0 mm
07:02 2.2 °C 0.6 °C 1017.8 hPa Calm     89 % 0 mm
07:03 2.2 °C 0.6 °C 1017.8 hPa Calm     89 % 0 mm
07:08 2.2 °C 0.6 °C 1017.8 hPa Calm     89 % 0 mm
07:13 2.1 °C 0.5 °C 1017.8 hPa Calm     89 % 0 mm
07:18 2.2 °C 0.7 °C 1017.8 hPa Calm     90 % 0 mm
07:23 2.2 °C 0.7 °C 1017.8 hPa Calm     90 % 0 mm
07:28 2.2 °C 0.7 °C 1017.8 hPa Calm     90 % 0 mm
07:34 2.2 °C 0.8 °C 1017.8 hPa Calm     90 % 0 mm
07:39 2.3 °C 0.9 °C 1017.8 hPa Calm     91 % 0 mm
07:44 2.3 °C 1 °C 1017.8 hPa Calm     91 % 0 mm
07:49 2.4 °C 1.1 °C 1017.8 hPa Calm     91 % 0 mm
07:54 2.4 °C 1.3 °C 1017.8 hPa Calm     92 % 0 mm
07:59 2.5 °C 1.3 °C 1017.8 hPa Calm     92 % 0 mm
08:04 2.6 °C 1.4 °C 1017.8 hPa Calm     92 % 0 mm
08:09 2.7 °C 1.5 °C 1017.8 hPa Calm     92 % 0 mm
08:14 2.8 °C 1.6 °C 1017.8 hPa Calm     92 % 0 mm
08:19 3 °C 2 °C 1017.8 hPa Calm     93 % 0 mm
08:24 3.2 °C 2.2 °C 1017.8 hPa Calm     93 % 0 mm
08:29 3.3 °C 2.3 °C 1017.5 hPa Calm     93 % 0 mm
08:34 3.5 °C 2.5 °C 1017.5 hPa Calm     93 % 0 mm
08:39 3.7 °C 2.7 °C 1017.5 hPa Calm     93 % 0 mm
08:44 3.9 °C 2.9 °C 1017.5 hPa Calm     93 % 0 mm
08:49 4.3 °C 3.2 °C 1017.5 hPa Calm     93 % 0 mm
08:54 4.8 °C 3.7 °C 1017.2 hPa Calm     93 % 0 mm
08:59 5.2 °C 4.1 °C 1017.2 hPa Calm     93 % 0 mm
09:04 5.6 °C 4.5 °C 1017.2 hPa SW 5.5 km/h 9.3 km/h 93 % 0 mm
09:10 6.1 °C 5 °C 1017.2 hPa SSW 3.5 km/h 9.3 km/h 93 % 0 mm
09:15 6.6 °C 5.7 °C 1017.2 hPa SW 5 km/h 11.1 km/h 94 % 0 mm
09:20 7.2 °C 6.3 °C 1017.2 hPa SSW 4.2 km/h 14.8 km/h 94 % 0 mm
09:25 7.7 °C 6.6 °C 1017.2 hPa SW 1.4 km/h 11.1 km/h 93 % 0 mm
09:30 8 °C 6.8 °C 1016.8 hPa SW 2.6 km/h 7.4 km/h 92 % 0 mm
09:35 8.2 °C 6.7 °C 1016.8 hPa WNW 1.8 km/h 3.7 km/h 90 % 0 mm
09:40 8.3 °C 6.3 °C 1016.8 hPa Calm     87 % 0 mm
09:45 8.3 °C 5.8 °C 1016.5 hPa WNW 0.3 km/h 1.9 km/h 84 % 0 mm
09:50 8.4 °C 5.7 °C 1016.5 hPa WNW 0.8 km/h 3.7 km/h 83 % 0 mm
09:55 8.4 °C 5.4 °C 1016.5 hPa Calm     81 % 0 mm
10:00 8.6 °C 6 °C 1016.5 hPa SW 6.9 km/h 13 km/h 84 % 0 mm
10:05 8.7 °C 6.3 °C 1016.5 hPa WSW 5.3 km/h 9.3 km/h 85 % 0 mm
10:10 8.8 °C 6.1 °C 1016.5 hPa West 0.3 km/h 4.8 km/h 83 % 0 mm
10:15 8.8 °C 6.1 °C 1016.8 hPa WSW 2.4 km/h 5.6 km/h 83 % 0 mm
10:20 8.8 °C 5.7 °C 1016.5 hPa WNW 4.5 km/h 6.4 km/h 81 % 0 mm
10:26 8.4 °C 4.4 °C 1016.5 hPa NW 3.2 km/h 8 km/h 76 % 0 mm
10:31 8.1 °C 4.1 °C 1016.5 hPa Calm   6.4 km/h 76 % 0 mm
10:36 7.8 °C 4.2 °C 1016.5 hPa NW 3.7 km/h 5.6 km/h 78 % 0 mm
10:41 7.8 °C 4.6 °C 1016.5 hPa NW 1.6 km/h 3.2 km/h 80 % 0 mm
10:46 7.7 °C 4.5 °C 1016.5 hPa NNW 4.8 km/h 9.7 km/h 80 % 0 mm
10:51 7.7 °C 4.3 °C 1016.5 hPa Calm   4.8 km/h 79 % 0 mm
10:56 7.4 °C 4.2 °C 1016.5 hPa North 0.2 km/h 1.9 km/h 80 % 0 mm
11:01 7.3 °C 4.2 °C 1016.5 hPa Calm     81 % 0 mm
11:06 7.1 °C 4.2 °C 1016.5 hPa Calm   3.2 km/h 82 % 0 mm
11:11 6.9 °C 4 °C 1016.5 hPa North 1.6 km/h 3.2 km/h 82 % 0 mm
11:16 6.7 °C 3.9 °C 1016.1 hPa North 0.3 km/h 1.9 km/h 82 % 0 mm
11:21 6.5 °C 3.8 °C 1016.1 hPa Calm   3.2 km/h 83 % 0 mm
11:26 6.4 °C 3.9 °C 1016.1 hPa Calm   3.2 km/h 84 % 0 mm
11:31 6.4 °C 3.9 °C 1016.1 hPa Calm   1.6 km/h 84 % 0 mm
11:36 6.4 °C 4.1 °C 1016.1 hPa North 0.3 km/h 3.7 km/h 85 % 0 mm
11:41 6.3 °C 4 °C 1016.1 hPa Calm   1.6 km/h 85 % 0 mm
11:46 6.3 °C 4 °C 1015.8 hPa Calm   1.6 km/h 85 % 0 mm
11:51 6.3 °C 4.1 °C 1015.5 hPa Calm   3.2 km/h 86 % 0 mm
11:56 6.3 °C 4.1 °C 1015.5 hPa Calm   4.8 km/h 86 % 0 mm
12:01 6.3 °C 4.1 °C 1015.5 hPa North 0.6 km/h 1.9 km/h 86 % 0 mm
12:06 6.3 °C 4.3 °C 1015.1 hPa North 0.6 km/h 6.4 km/h 87 % 0 mm
12:11 6.4 °C 4.4 °C 1015.1 hPa ENE 2.7 km/h 5.6 km/h 87 % 0 mm
12:16 6.5 °C 4.5 °C 1015.1 hPa NNE 3.5 km/h 6.4 km/h 87 % 0 mm
12:21 6.6 °C 4.6 °C 1014.8 hPa NNE 5.5 km/h 7.4 km/h 87 % 0 mm
12:26 6.6 °C 4.6 °C 1014.8 hPa NE 2.3 km/h 5.6 km/h 87 % 0 mm
12:31 6.7 °C 4.7 °C 1014.8 hPa NE 2.1 km/h 3.7 km/h 87 % 0 mm
12:36 6.7 °C 4.7 °C 1014.8 hPa ENE 2.7 km/h 3.7 km/h 87 % 0 mm
12:41 6.8 °C 4.8 °C 1014.4 hPa ENE 3.7 km/h 5.6 km/h 87 % 0 mm
12:46 6.8 °C 4.8 °C 1014.4 hPa ENE 0.5 km/h 3.7 km/h 87 % 0 mm
12:51 6.9 °C 4.9 °C 1014.4 hPa ENE 0.8 km/h 1.9 km/h 87 % 0 mm
12:56 7.1 °C 5.1 °C 1014.1 hPa ENE 0.8 km/h 1.9 km/h 87 % 0 mm
13:01 7.1 °C 5.1 °C 1013.8 hPa ENE 2.1 km/h 4.8 km/h 87 % 0 mm
13:06 7.2 °C 5.2 °C 1013.8 hPa ENE 3.9 km/h 6.4 km/h 87 % 0 mm
13:12 7.3 °C 5.3 °C 1013.8 hPa ENE 4.3 km/h 5.6 km/h 87 % 0 mm
13:17 7.2 °C 5.1 °C 1013.8 hPa ENE 2.6 km/h 7.4 km/h 86 % 0 mm
13:22 7 °C 4.8 °C 1013.4 hPa NE 6 km/h 11.1 km/h 86 % 0 mm
13:27 6.8 °C 4.7 °C 1013.4 hPa ENE 4.3 km/h 5.6 km/h 86 % 0 mm
13:32 6.7 °C 4.6 °C 1013.4 hPa ENE 5.6 km/h 5.6 km/h 86 % 0 mm
13:37 6.7 °C 4.7 °C 1013.4 hPa ENE 2.1 km/h 5.6 km/h 87 % 0 mm
13:42 6.6 °C 4.7 °C 1013.4 hPa ENE 2.9 km/h 5.6 km/h 88 % 0 mm
13:47 6.5 °C 4.5 °C 1013.1 hPa ENE 2.7 km/h 3.7 km/h 87 % 0 mm
13:52 6.3 °C 4.5 °C 1013.1 hPa NE 2.4 km/h 5.6 km/h 88 % 0 mm
13:57 6.3 °C 4.4 °C 1013.1 hPa ENE 2.1 km/h 5.6 km/h 88 % 0 mm
14:02 6.2 °C 4.3 °C 1012.8 hPa NE 1.4 km/h 3.2 km/h 88 % 0 mm
14:07 6.2 °C 4.5 °C 1012.8 hPa NNE 2.6 km/h 3.7 km/h 89 % 0 mm
14:12 6.2 °C 4.3 °C 1012.8 hPa NNE 1.6 km/h 5.6 km/h 88 % 0 mm
14:17 6.1 °C 4.3 °C 1012.8 hPa Calm   5.6 km/h 88 % 0 mm
14:22 6.1 °C 4.2 °C 1012.8 hPa NNE 0.8 km/h 1.9 km/h 88 % 0 mm
14:27 6 °C 4.2 °C 1012.4 hPa NNE 1.3 km/h 4.8 km/h 88 % 0 mm
14:33 6 °C 4.2 °C 1012.4 hPa Calm     88 % 0 mm
14:38 5.9 °C 4.1 °C 1012.4 hPa NNE 3.1 km/h 3.2 km/h 88 % 0 mm
14:43 5.9 °C 4.1 °C 1012.4 hPa Calm   3.7 km/h 88 % 0 mm
14:48 5.9 °C 4.2 °C 1012.4 hPa NNE 0.8 km/h 5.6 km/h 89 % 0 mm
14:53 5.9 °C 4.2 °C 1012.4 hPa Calm     89 % 0 mm
14:58 5.8 °C 4.3 °C 1012.4 hPa NNE 0.5 km/h 1.9 km/h 90 % 0 mm
15:03 5.8 °C 4.3 °C 1012.4 hPa Calm     90 % 0 mm
15:08 5.8 °C 4.3 °C 1012.4 hPa Calm     90 % 0 mm
15:13 5.8 °C 4.5 °C 1012.4 hPa Calm     91 % 0 mm
15:18 5.8 °C 4.5 °C 1012.4 hPa Calm     91 % 0 mm
15:23 5.9 °C 4.6 °C 1012.4 hPa Calm     91 % 0 mm
15:28 5.9 °C 4.6 °C 1012.4 hPa Calm     91 % 0 mm
15:33 5.9 °C 4.6 °C 1012.4 hPa Calm     91 % 0 mm
15:38 5.9 °C 4.7 °C 1012.4 hPa NNE 1.4 km/h 3.7 km/h 92 % 0 mm
15:43 5.9 °C 4.7 °C 1012.4 hPa Calm     92 % 0 mm
15:48 5.9 °C 4.7 °C 1012.4 hPa Calm     92 % 0 mm
15:53 5.9 °C 4.7 °C 1012.4 hPa Calm     92 % 0 mm
15:59 5.9 °C 4.7 °C 1012.4 hPa Calm   1.9 km/h 92 % 0 mm
16:04 5.9 °C 4.7 °C 1012.8 hPa NW 4.5 km/h 5.6 km/h 92 % 0 mm
16:09 5.8 °C 4.6 °C 1012.8 hPa WNW 2.6 km/h 9.3 km/h 92 % 0 mm
16:14 5.7 °C 4.3 °C 1012.4 hPa NW 1 km/h 5.6 km/h 91 % 0 mm
16:19 5.4 °C 3.9 °C 1012.4 hPa Calm   1.9 km/h 90 % 0 mm
16:24 5.3 °C 3.8 °C 1012.4 hPa Calm     90 % 0 mm
16:30 5.1 °C 3.6 °C 1012.4 hPa Calm     90 % 0 mm
16:35 5 °C 3.5 °C 1012.4 hPa Calm     90 % 0 mm
16:40 4.9 °C 3.6 °C 1012.4 hPa Calm     91 % 0 mm
16:45 4.8 °C 3.5 °C 1012.4 hPa Calm     91 % 0 mm
16:50 4.8 °C 3.5 °C 1012.4 hPa Calm     91 % 0 mm
16:55 4.8 °C 3.6 °C 1012.4 hPa Calm     92 % 0 mm
17:00 4.7 °C 3.6 °C 1012.4 hPa Calm     92 % 0 mm
17:05 4.7 °C 3.6 °C 1012.1 hPa Calm     92 % 0 mm
17:10 4.7 °C 3.5 °C 1012.4 hPa Calm     92 % 0 mm
17:15 4.7 °C 3.5 °C 1012.1 hPa Calm     92 % 0 mm
17:20 4.7 °C 3.6 °C 1012.1 hPa Calm     92 % 0 mm
17:25 4.8 °C 3.6 °C 1012.1 hPa Calm     92 % 0 mm
17:30 4.8 °C 3.7 °C 1012.1 hPa Calm     93 % 0 mm
17:35 4.8 °C 3.8 °C 1012.1 hPa Calm     93 % 0 mm
17:40 4.8 °C 3.8 °C 1012.1 hPa Calm     93 % 0 mm
17:45 4.9 °C 3.9 °C 1011.7 hPa Calm     93 % 0 mm
17:50 5 °C 4.1 °C 1011.7 hPa Calm     94 % 0 mm
17:56 5.1 °C 4.2 °C 1011.7 hPa Calm     94 % 0 mm
18:01 5.2 °C 4.3 °C 1011.7 hPa Calm     94 % 0 mm
18:06 5.2 °C 4.3 °C 1011.7 hPa Calm     94 % 0 mm
18:11 5.2 °C 4.3 °C 1011.7 hPa Calm     94 % 0 mm
18:16 5.2 °C 4.3 °C 1011.7 hPa Calm   1.6 km/h 94 % 0 mm
18:21 5.1 °C 4.2 °C 1011.4 hPa Calm     94 % 0 mm
18:26 5.1 °C 4.2 °C 1011.1 hPa Calm     94 % 0 mm
18:31 5 °C 4.1 °C 1011.4 hPa Calm     94 % 0 mm
18:36 4.9 °C 4.1 °C 1011.1 hPa Calm     94 % 0 mm
18:41 4.9 °C 4 °C 1011.1 hPa Calm     94 % 0 mm
18:46 4.8 °C 3.8 °C 1011.1 hPa Calm     93 % 0 mm
18:51 4.8 °C 3.7 °C 1011.1 hPa Calm     93 % 0 mm
18:56 4.7 °C 3.7 °C 1011.1 hPa Calm     93 % 0 mm
19:01 4.7 °C 3.8 °C 1010.7 hPa Calm     94 % 0 mm
19:06 4.7 °C 3.8 °C 1010.7 hPa Calm     94 % 0 mm
19:11 4.6 °C 3.7 °C 1010.7 hPa Calm     94 % 0 mm
19:16 4.6 °C 3.7 °C 1010.4 hPa Calm     94 % 0 mm
19:21 4.6 °C 3.5 °C 1010.4 hPa Calm     93 % 0 mm
19:26 4.5 °C 3.4 °C 1010.4 hPa Calm     93 % 0 mm
19:31 4.5 °C 3.4 °C 1010.4 hPa Calm     93 % 0 mm
19:36 4.4 °C 3.4 °C 1010.4 hPa Calm     93 % 0 mm
19:41 4.4 °C 3.4 °C 1010 hPa Calm     93 % 0 mm
19:46 4.4 °C 3.6 °C 1009.7 hPa Calm     94 % 0 mm
19:51 4.4 °C 3.6 °C 1009.7 hPa Calm     94 % 0 mm
19:56 4.4 °C 3.6 °C 1009.4 hPa Calm   3.2 km/h 94 % 0 mm
20:01 4.6 °C 3.7 °C 1009.4 hPa Calm     94 % 0 mm
20:06 4.7 °C 4 °C 1009.4 hPa Calm     95 % 0 mm
20:11 4.9 °C 4.2 °C 1009.4 hPa Calm   1.9 km/h 95 % 0 mm
20:16 5.1 °C 4.5 °C 1009.4 hPa South 2.4 km/h 5.6 km/h 96 % 0 mm
20:21 5.4 °C 4.8 °C 1009.4 hPa South 0.8 km/h 3.7 km/h 96 % 0 mm
20:26 5.7 °C 5.1 °C 1009 hPa Calm     96 % 0 mm
20:31 6.2 °C 5.8 °C 1008.7 hPa SSE 0.8 km/h 7.4 km/h 97 % 0 mm
20:36 6.4 °C 6 °C 1008.7 hPa Calm     97 % 0 mm
20:41 6.8 °C 6.3 °C 1008.7 hPa Calm   1.9 km/h 97 % 0 mm
20:46 7 °C 6.6 °C 1008.7 hPa SSE 0.3 km/h 3.7 km/h 97 % 0 mm
20:51 7.2 °C 6.8 °C 1008.7 hPa Calm   5.6 km/h 97 % 0 mm
20:56 7.4 °C 7 °C 1008.7 hPa SSW 1.4 km/h 9.3 km/h 97 % 0 mm
21:01 7.6 °C 7.2 °C 1008.7 hPa WSW 1 km/h 3.7 km/h 97 % 0 mm
21:06 7.8 °C 7.4 °C 1008.7 hPa WNW 0.5 km/h 5.6 km/h 97 % 0 mm
21:12 7.9 °C 7.5 °C 1008.7 hPa WNW 3.1 km/h 3.7 km/h 97 % 0 mm
21:17 7.8 °C 7.3 °C 1008.7 hPa WNW 3.9 km/h 6.4 km/h 97 % 0 mm
21:22 7.5 °C 6.9 °C 1008.4 hPa NW 3.7 km/h 5.6 km/h 96 % 0 mm
21:27 7.2 °C 6.6 °C 1008.7 hPa WNW 4.5 km/h 6.4 km/h 96 % 0 mm
21:32 7 °C 6.4 °C 1009 hPa WNW 7.1 km/h 14.8 km/h 96 % 0.51 mm
21:37 6.7 °C 6.1 °C 1009 hPa West 5.5 km/h 9.3 km/h 96 % 0.76 mm
21:42 6.5 °C 5.9 °C 1009 hPa WNW 3.9 km/h 9.3 km/h 96 % 1.02 mm
21:47 6.3 °C 5.7 °C 1009 hPa WNW 6.4 km/h 9.3 km/h 96 % 1.78 mm
21:52 6.1 °C 5.3 °C 1009 hPa West 3.2 km/h 5.6 km/h 95 % 2.03 mm
21:57 5.9 °C 5.2 °C 1009 hPa West 3.2 km/h 5.6 km/h 95 % 2.29 mm
22:02 5.7 °C 5 °C 1009 hPa West 1.4 km/h 3.7 km/h 95 % 2.29 mm
22:07 5.7 °C 4.9 °C 1009 hPa Calm     95 % 2.54 mm
22:12 5.6 °C 4.9 °C 1009 hPa Calm     95 % 2.79 mm
22:17 5.6 °C 4.8 °C 1008.7 hPa Calm     95 % 2.79 mm
22:22 5.5 °C 4.9 °C 1008.7 hPa Calm     96 % 2.79 mm
22:27 5.5 °C 4.9 °C 1008.7 hPa Calm     96 % 3.05 mm
22:32 5.5 °C 4.9 °C 1008 hPa Calm     96 % 2.54 mm
22:37 5.6 °C 4.9 °C 1008 hPa Calm     96 % 2.29 mm
22:43 5.6 °C 4.9 °C 1008 hPa Calm     96 % 2.03 mm
22:48 5.6 °C 4.9 °C 1008 hPa Calm     96 % 1.27 mm
22:53 5.6 °C 5 °C 1008 hPa Calm     96 % 1.02 mm
22:58 5.7 °C 5.1 °C 1008 hPa Calm     96 % 0.76 mm
23:03 5.8 °C 5.2 °C 1007.7 hPa Calm   1.9 km/h 96 % 0.76 mm
23:08 5.9 °C 5.3 °C 1008 hPa Calm     96 % 0.51 mm
23:13 6 °C 5.6 °C 1007.7 hPa Calm     97 % 0.25 mm
23:18 6.1 °C 5.7 °C 1008 hPa Calm     97 % 0.25 mm
23:23 6.2 °C 5.8 °C 1008 hPa Calm     97 % 0.25 mm
23:28 6.4 °C 5.9 °C 1008 hPa Calm     97 % 0.25 mm
23:33 6.6 °C 6.1 °C 1008 hPa West 1.9 km/h 3.7 km/h 97 % 0.25 mm
23:38 6.7 °C 6.2 °C 1008 hPa West 0.2 km/h 1.6 km/h 97 % 0.25 mm
23:43 6.7 °C 6.3 °C 1008.4 hPa West 0.6 km/h 1.9 km/h 97 % 0.25 mm
23:48 6.7 °C 6.3 °C 1008.4 hPa Calm     97 % 0.25 mm
23:53 6.7 °C 6.3 °C 1008.4 hPa Calm     97 % 0.25 mm
23:58 6.7 °C 6.2 °C 1008.7 hPa Calm     97 % 0.25 mm
Crab Meadow Weather
Compliments of Weather Underground - 3 mb

Script developed by  Jim McMurry - jmcmurry@mwt.net Adapted for the template by  Wim van der Kuil - Leuven-Template.eu

Clouds: Partly sunny and partly cloudy indicate the same amount of cloud coverage - about 50 percent. Partly sunny is used during the daytime, and partly cloudy is used at night when there is no sun.